Time;durP1;ratioP1;P1;durP2;ratioP2;P2;SDS_P1;SDS_P2;PMS_P1;PMS_P2;Temp;Humidity;BMP_temperature;BMP_pressure;BME280_temperature;BME280_humidity;BME280_pressure;Samples;Min_cycle;Max_cycle;Signal;HPM_P1;HPM_P2
2021/08/11 00:01:28;;;;;;;6.80;5.20;;;23.10;68.80;;;;;;5054900;28;20406;-63
2021/08/11 00:03:53;;;;;;;7.00;5.47;;;23.10;68.80;;;;;;5054857;28;20098;-63
2021/08/11 00:06:19;;;;;;;8.18;5.97;;;23.10;69.20;;;;;;5054814;28;20423;-63
2021/08/11 00:08:46;;;;;;;7.63;5.53;;;23.00;69.40;;;;;;5054850;28;20088;-63
2021/08/11 00:11:12;;;;;;;7.95;5.60;;;23.00;69.30;;;;;;5054690;28;20154;-63
2021/08/11 00:13:38;;;;;;;7.85;5.57;;;23.00;69.70;;;;;;5054709;28;20021;-63
2021/08/11 00:16:04;;;;;;;7.25;5.53;;;22.90;69.60;;;;;;5054744;28;20040;-63
2021/08/11 00:18:30;;;;;;;8.23;5.63;;;22.90;69.80;;;;;;5054674;28;20380;-63
2021/08/11 00:20:56;;;;;;;8.35;5.70;;;22.80;70.20;;;;;;5054563;28;20096;-63
2021/08/11 00:23:24;;;;;;;7.57;5.22;;;22.80;70.20;;;;;;5054455;28;20104;-63
2021/08/11 00:25:54;;;;;;;7.88;5.38;;;22.80;70.20;;;;;;5054515;28;20017;-63
2021/08/11 00:28:24;;;;;;;6.82;5.43;;;22.70;70.30;;;;;;5054614;28;20146;-63
2021/08/11 00:30:51;;;;;;;6.63;5.38;;;22.70;70.40;;;;;;5054344;28;20036;-63
2021/08/11 00:33:17;;;;;;;6.55;4.88;;;22.70;70.50;;;;;;5054466;28;20475;-61
2021/08/11 00:35:43;;;;;;;7.70;5.50;;;22.60;70.40;;;;;;5054335;28;20104;-61
2021/08/11 00:38:09;;;;;;;7.65;6.00;;;22.60;71.00;;;;;;5054314;28;20048;-62
2021/08/11 00:40:35;;;;;;;8.35;5.40;;;22.60;71.00;;;;;;5053099;28;20028;-61
2021/08/11 00:43:05;;;;;;;8.50;5.72;;;22.50;71.10;;;;;;5054322;28;20021;-62
2021/08/11 00:45:32;;;;;;;7.50;5.30;;;22.50;71.30;;;;;;5054153;28;20033;-62
2021/08/11 00:47:58;;;;;;;6.93;5.47;;;22.50;71.30;;;;;;5054246;28;20029;-62
2021/08/11 00:50:24;;;;;;;7.47;5.50;;;22.50;71.60;;;;;;5054102;28;20388;-62
2021/08/11 00:52:50;;;;;;;6.47;5.28;;;22.50;71.70;;;;;;5054005;28;20028;-62
2021/08/11 00:55:19;;;;;;;7.38;5.85;;;22.50;71.90;;;;;;5053975;28;20098;-62
2021/08/11 00:57:46;;;;;;;7.40;5.82;;;22.50;72.30;;;;;;5053803;28;20032;-62
2021/08/11 01:00:20;;;;;;;7.40;5.68;;;22.50;72.20;;;;;;5053915;28;20031;-63
2021/08/11 01:02:47;;;;;;;7.65;5.68;;;22.40;73.20;;;;;;5053207;28;20029;-62
2021/08/11 01:05:13;;;;;;;7.13;5.80;;;22.40;72.80;;;;;;5053841;28;20044;-62
2021/08/11 01:07:39;;;;;;;6.80;5.60;;;22.40;72.60;;;;;;5054091;28;20033;-62
2021/08/11 01:10:06;;;;;;;8.10;5.55;;;22.40;72.60;;;;;;5053849;28;20067;-62
2021/08/11 01:12:33;;;;;;;7.43;6.00;;;22.40;73.50;;;;;;5053764;28;20064;-61
2021/08/11 01:15:01;;;;;;;6.65;5.63;;;22.40;72.80;;;;;;5053686;28;20079;-62
2021/08/11 01:17:29;;;;;;;8.20;6.13;;;22.40;72.80;;;;;;5053930;28;20792;-63
2021/08/11 01:19:59;;;;;;;8.23;6.00;;;22.30;72.90;;;;;;5053718;28;20021;-62
2021/08/11 01:22:47;;;;;;;7.15;5.70;;;22.30;72.80;;;;;;5053560;28;20052;-62
2021/08/11 01:25:33;;;;;;;7.88;6.20;;;22.30;73.00;;;;;;5053520;28;20024;-63
2021/08/11 01:28:27;;;;;;;7.00;5.80;;;22.30;73.40;;;;;;5053474;28;20021;-62
2021/08/11 01:31:08;;;;;;;7.75;6.20;;;22.20;73.30;;;;;;5053347;28;20535;-61
2021/08/11 01:33:47;;;;;;;8.35;6.07;;;22.20;73.50;;;;;;5052297;28;20064;-62
2021/08/11 01:36:38;;;;;;;7.78;6.20;;;22.20;73.70;;;;;;5053314;28;20025;-62
2021/08/11 01:39:34;;;;;;;9.07;6.00;;;22.20;74.00;;;;;;5053234;28;20017;-63
2021/08/11 01:42:08;;;;;;;7.30;6.03;;;22.10;73.70;;;;;;5052915;28;20502;-63
2021/08/11 01:45:15;;;;;;;8.23;6.15;;;22.10;73.80;;;;;;5053373;28;20033;-63
2021/08/11 01:47:47;;;;;;;8.98;6.10;;;22.10;74.20;;;;;;5052917;28;20048;-62
2021/08/11 01:50:15;;;;;;;7.63;6.28;;;22.00;74.10;;;;;;5052998;28;20037;-62
2021/08/11 01:52:44;;;;;;;7.47;6.28;;;22.00;74.00;;;;;;5052872;28;20116;-62
2021/08/11 01:55:11;;;;;;;7.05;5.78;;;22.00;74.10;;;;;;5052845;28;20538;-62
2021/08/11 01:57:41;;;;;;;8.77;6.43;;;21.90;74.20;;;;;;5052836;28;20021;-62
2021/08/11 02:00:07;;;;;;;8.63;6.13;;;22.00;74.30;;;;;;5052870;28;20021;-63
2021/08/11 02:02:36;;;;;;;8.30;5.88;;;21.90;74.30;;;;;;5052730;28;20112;-62
2021/08/11 02:05:02;;;;;;;7.82;6.40;;;21.90;74.30;;;;;;5052689;28;20473;-62
2021/08/11 02:07:28;;;;;;;8.45;5.97;;;21.90;74.20;;;;;;5051412;28;20044;-62
2021/08/11 02:09:54;;;;;;;9.10;6.18;;;21.90;74.30;;;;;;5052604;28;20380;-62
2021/08/11 02:12:19;;;;;;;8.15;6.07;;;21.90;74.30;;;;;;5052607;28;20421;-62
2021/08/11 02:14:45;;;;;;;7.80;6.40;;;21.90;74.60;;;;;;5051434;28;20112;-62
2021/08/11 02:17:11;;;;;;;7.57;6.10;;;21.90;74.60;;;;;;5052419;28;20542;-62
2021/08/11 02:19:37;;;;;;;8.65;6.40;;;21.80;74.70;;;;;;5052467;28;20029;-62
2021/08/11 02:22:02;;;;;;;7.97;6.57;;;21.80;75.40;;;;;;5052374;28;20039;-63
2021/08/11 02:24:28;;;;;;;7.80;6.40;;;21.80;75.10;;;;;;5052301;28;20029;-62
2021/08/11 02:27:10;;;;;;;8.45;6.40;;;21.70;75.30;;;;;;5052323;28;20032;-62
2021/08/11 02:29:48;;;;;;;;;;;21.70;75.40;;;;;;5052642;28;20518;-62
2021/08/11 02:32:28;;;;;;;7.75;6.53;;;21.70;75.80;;;;;;5051933;28;19915;-62
2021/08/11 02:35:03;;;;;;;7.72;6.30;;;21.70;75.70;;;;;;5052143;28;20021;-62
2021/08/11 02:38:00;;;;;;;7.82;5.97;;;21.70;75.60;;;;;;5052044;28;20100;-63
2021/08/11 02:40:37;;;;;;;7.68;6.40;;;21.60;75.50;;;;;;5040397;28;20039;-62
2021/08/11 02:43:05;;;;;;;8.20;6.50;;;21.60;76.00;;;;;;5051938;28;20021;-62
2021/08/11 02:45:32;;;;;;;9.98;7.07;;;21.60;75.90;;;;;;5052025;28;20028;-63
2021/08/11 02:48:00;;;;;;;8.38;6.70;;;21.60;76.10;;;;;;5052235;28;20376;-63
2021/08/11 02:50:26;;;;;;;8.23;6.70;;;21.60;76.10;;;;;;5051903;28;20444;-62
2021/08/11 02:52:53;;;;;;;8.32;7.18;;;21.60;76.30;;;;;;5050509;28;20025;-63
2021/08/11 02:55:19;;;;;;;7.72;6.35;;;21.60;76.30;;;;;;5051853;28;20021;-62
2021/08/11 02:57:47;;;;;;;8.23;6.65;;;21.60;77.00;;;;;;5052067;28;20051;-62
2021/08/11 03:00:13;;;;;;;8.80;6.32;;;21.60;76.30;;;;;;5051869;28;20348;-63
2021/08/11 03:02:39;;;;;;;8.15;6.85;;;21.60;76.20;;;;;;5051661;28;20091;-62
2021/08/11 03:05:05;;;;;;;7.65;6.63;;;21.60;76.40;;;;;;5051480;28;20037;-62
2021/08/11 03:07:31;;;;;;;10.27;7.00;;;21.60;76.20;;;;;;5051699;28;20108;-62
2021/08/11 03:09:57;;;;;;;9.15;7.55;;;21.60;76.10;;;;;;5051360;28;20032;-62
2021/08/11 03:12:23;;;;;;;8.43;7.00;;;21.60;76.20;;;;;;5062999;28;20037;-63
2021/08/11 03:14:49;;;;;;;9.13;6.65;;;21.50;76.20;;;;;;5071594;28;20021;-62
2021/08/11 03:17:15;;;;;;;8.38;6.93;;;21.60;76.10;;;;;;5071436;28;20036;-62
2021/08/11 03:19:43;;;;;;;7.78;6.43;;;21.60;76.00;;;;;;5066904;28;20025;-62
2021/08/11 03:22:10;;;;;;;7.95;6.57;;;21.60;75.90;;;;;;5051290;28;20079;-62
2021/08/11 03:24:37;;;;;;;8.60;6.70;;;21.50;75.90;;;;;;5050912;28;20473;-63
2021/08/11 03:27:03;;;;;;;8.10;6.68;;;21.50;75.80;;;;;;5051394;28;20388;-63
2021/08/11 03:29:28;;;;;;;8.85;7.03;;;21.50;75.80;;;;;;5051447;28;20052;-63
2021/08/11 03:31:54;;;;;;;8.82;7.20;;;21.50;75.70;;;;;;5050684;28;20029;-63
2021/08/11 03:34:19;;;;;;;9.13;6.93;;;21.60;75.70;;;;;;5051330;28;20033;-63
2021/08/11 03:36:45;;;;;;;7.70;6.60;;;21.60;75.70;;;;;;5051609;28;20032;-63
2021/08/11 03:39:11;;;;;;;8.15;6.60;;;21.60;75.80;;;;;;5051400;28;20032;-63
2021/08/11 03:41:36;;;;;;;8.07;6.63;;;21.60;75.60;;;;;;5051129;28;20032;-64
2021/08/11 03:44:02;;;;;;;8.77;6.30;;;21.60;75.60;;;;;;5049923;28;20037;-64
2021/08/11 03:46:30;;;;;;;8.50;6.63;;;21.60;75.40;;;;;;5051161;28;20036;-64
2021/08/11 03:48:56;;;;;;;8.40;6.60;;;21.60;75.60;;;;;;5051424;28;20033;-63
2021/08/11 03:51:21;;;;;;;8.02;6.55;;;21.60;75.50;;;;;;5051108;28;20041;-63
2021/08/11 03:53:47;;;;;;;8.82;7.10;;;21.60;75.60;;;;;;5050989;28;20104;-63
2021/08/11 03:56:13;;;;;;;8.02;6.78;;;21.70;75.80;;;;;;5049849;28;20028;-63
2021/08/11 03:58:39;;;;;;;8.27;6.60;;;21.60;75.90;;;;;;5050803;28;20036;-63
2021/08/11 04:01:06;;;;;;;8.55;6.80;;;21.70;76.00;;;;;;5050713;28;20029;-63
2021/08/11 04:03:31;;;;;;;8.85;7.25;;;21.70;76.00;;;;;;5050962;28;20105;-63
2021/08/11 04:05:57;;;;;;;11.02;9.30;;;21.80;76.10;;;;;;5050760;28;20119;-64
2021/08/11 04:08:23;;;;;;;10.02;7.80;;;21.80;76.20;;;;;;5051093;28;20025;-63
2021/08/11 04:10:49;;;;;;;9.73;6.97;;;21.80;76.00;;;;;;5050880;28;20033;-62
2021/08/11 04:13:15;;;;;;;9.15;6.97;;;21.90;75.80;;;;;;5050756;28;20056;-62
2021/08/11 04:15:42;;;;;;;9.25;7.25;;;21.90;75.80;;;;;;5050938;28;20021;-62
2021/08/11 04:18:08;;;;;;;9.18;7.28;;;22.00;75.80;;;;;;5050747;28;20021;-63
2021/08/11 04:20:35;;;;;;;10.00;7.38;;;22.00;75.60;;;;;;5050546;28;20028;-62
2021/08/11 04:23:00;;;;;;;9.88;7.20;;;22.00;75.40;;;;;;5050185;28;20451;-62
2021/08/11 04:25:26;;;;;;;9.32;7.07;;;22.10;75.30;;;;;;5050776;28;20100;-62
2021/08/11 04:27:52;;;;;;;8.18;7.13;;;22.10;75.10;;;;;;5050737;28;20052;-62
2021/08/11 04:30:18;;;;;;;8.20;6.72;;;22.20;74.80;;;;;;5050844;28;20061;-62
2021/08/11 04:32:43;;;;;;;8.00;6.40;;;22.20;74.60;;;;;;5050363;28;20078;-62
2021/08/11 04:35:10;;;;;;;8.60;6.90;;;22.30;74.50;;;;;;5050679;28;20468;-63
2021/08/11 04:37:40;;;;;;;8.23;7.07;;;22.30;74.30;;;;;;5051019;28;20025;-62
2021/08/11 04:40:07;;;;;;;9.60;7.38;;;22.40;74.00;;;;;;5054495;28;20827;-62
2021/08/11 04:42:33;;;;;;;10.25;6.95;;;22.40;73.70;;;;;;5054229;28;20083;-62
2021/08/11 04:44:59;;;;;;;7.65;6.40;;;22.40;73.40;;;;;;5054162;28;20457;-62
2021/08/11 04:47:25;;;;;;;7.47;6.57;;;22.40;73.40;;;;;;5052835;28;20103;-64
2021/08/11 04:49:51;;;;;;;7.80;6.47;;;22.40;73.30;;;;;;5054101;28;20025;-63
2021/08/11 04:52:17;;;;;;;10.05;7.10;;;22.40;73.00;;;;;;5053461;28;20038;-63
2021/08/11 04:54:42;;;;;;;8.32;6.63;;;22.40;73.00;;;;;;5054074;28;20032;-63
2021/08/11 04:57:08;;;;;;;7.93;6.53;;;22.40;73.00;;;;;;5054038;28;20035;-62
2021/08/11 04:59:34;;;;;;;8.80;6.70;;;22.50;72.80;;;;;;5053885;28;20025;-63
2021/08/11 05:01:59;;;;;;;9.00;7.07;;;22.50;72.50;;;;;;5053369;28;20037;-63
2021/08/11 05:04:26;;;;;;;8.85;6.97;;;22.50;72.40;;;;;;5053534;28;20492;-63
2021/08/11 05:06:51;;;;;;;9.05;6.68;;;22.50;72.30;;;;;;5053648;28;20048;-64
2021/08/11 05:09:17;;;;;;;9.20;6.82;;;22.50;72.30;;;;;;5053860;28;20473;-63
2021/08/11 05:11:43;;;;;;;8.18;6.93;;;22.50;72.00;;;;;;5053718;28;20036;-64
2021/08/11 05:14:09;;;;;;;8.60;7.10;;;22.50;71.90;;;;;;5053398;28;20029;-64
2021/08/11 05:16:35;;;;;;;8.38;7.03;;;22.50;72.00;;;;;;5053805;28;20372;-63
2021/08/11 05:19:00;;;;;;;7.43;6.13;;;22.60;72.00;;;;;;5053948;28;20045;-63
2021/08/11 05:21:27;;;;;;;8.45;6.63;;;22.70;72.00;;;;;;5053472;28;20490;-63
2021/08/11 05:23:53;;;;;;;9.00;6.30;;;22.70;71.80;;;;;;5051762;28;20070;-64
2021/08/11 05:26:20;;;;;;;8.50;7.05;;;22.80;71.70;;;;;;5052206;28;20036;-63
2021/08/11 05:28:46;;;;;;;8.02;6.75;;;22.80;71.40;;;;;;5054206;28;20484;-64
2021/08/11 05:31:13;;;;;;;8.65;7.05;;;22.80;71.10;;;;;;5053501;28;20057;-63
2021/08/11 05:33:39;;;;;;;8.27;7.10;;;22.80;71.30;;;;;;5052619;28;20035;-63
2021/08/11 05:36:05;;;;;;;9.68;7.60;;;22.90;71.30;;;;;;5053171;28;20025;-63
2021/08/11 05:38:31;;;;;;;9.40;7.93;;;22.90;71.30;;;;;;5052958;28;20376;-63
2021/08/11 05:40:59;;;;;;;8.77;7.88;;;23.00;71.00;;;;;;5052651;28;20028;-63
2021/08/11 05:43:25;;;;;;;9.35;7.43;;;23.10;70.90;;;;;;5051255;28;20443;-63
2021/08/11 05:45:50;;;;;;;9.55;7.03;;;23.20;70.80;;;;;;5052438;28;20032;-63
2021/08/11 05:48:17;;;;;;;8.75;6.95;;;23.20;70.60;;;;;;5054568;28;20028;-63
2021/08/11 05:50:42;;;;;;;8.05;6.80;;;23.30;70.20;;;;;;5051516;28;20112;-63
2021/08/11 05:53:08;;;;;;;10.20;7.88;;;23.30;69.90;;;;;;5051590;28;20092;-63
2021/08/11 05:55:34;;;;;;;9.35;7.57;;;23.40;69.80;;;;;;5051822;28;20071;-63
2021/08/11 05:57:59;;;;;;;8.07;7.10;;;23.40;70.00;;;;;;5051367;28;20047;-63
2021/08/11 06:00:25;;;;;;;8.38;6.55;;;23.40;69.90;;;;;;5052511;28;20082;-62
2021/08/11 06:02:51;;;;;;;9.15;7.25;;;23.50;70.10;;;;;;5052172;28;20029;-63
2021/08/11 06:05:16;;;;;;;10.80;7.30;;;23.60;70.10;;;;;;5052430;28;20041;-64
2021/08/11 06:07:42;;;;;;;9.05;7.18;;;23.70;70.00;;;;;;5052431;28;20028;-64
2021/08/11 06:10:08;;;;;;;8.85;7.05;;;23.70;70.10;;;;;;5062539;28;20028;-64
2021/08/11 06:12:34;;;;;;;8.50;6.88;;;23.80;69.90;;;;;;5054688;28;20028;-64
2021/08/11 06:15:00;;;;;;;8.90;7.20;;;23.80;69.80;;;;;;5047487;28;20025;-65
2021/08/11 06:17:26;;;;;;;8.48;7.30;;;23.90;69.70;;;;;;5059558;28;20025;-64
2021/08/11 06:19:52;;;;;;;10.13;7.97;;;23.90;69.60;;;;;;5052474;28;20029;-64
2021/08/11 06:22:18;;;;;;;9.27;8.25;;;24.00;69.40;;;;;;5034604;28;20802;-63
2021/08/11 06:24:44;;;;;;;8.20;7.13;;;24.00;69.40;;;;;;5035255;28;20025;-63
2021/08/11 06:27:09;;;;;;;7.97;7.18;;;24.00;69.50;;;;;;5052669;28;20029;-64
2021/08/11 06:29:36;;;;;;;8.70;7.50;;;24.10;69.60;;;;;;5041440;28;20110;-64
2021/08/11 06:32:02;;;;;;;10.07;7.80;;;24.20;69.30;;;;;;5045257;28;20025;-63
2021/08/11 06:34:28;;;;;;;9.82;7.80;;;24.30;70.00;;;;;;5042297;28;20030;-63
2021/08/11 06:36:56;;;;;;;10.40;7.65;;;24.40;69.10;;;;;;5050749;28;20054;-65
2021/08/11 06:39:21;;;;;;;9.20;7.85;;;24.50;68.90;;;;;;5043138;28;20106;-64
2021/08/11 06:41:47;;;;;;;9.70;7.60;;;24.70;68.40;;;;;;5044875;28;20452;-63
2021/08/11 06:44:13;;;;;;;9.05;7.95;;;24.80;68.20;;;;;;5051138;28;20032;-62
2021/08/11 06:46:38;;;;;;;9.88;7.15;;;25.00;67.80;;;;;;5048991;28;20025;-67
2021/08/11 06:49:04;;;;;;;10.00;7.95;;;25.00;67.70;;;;;;5036408;28;20087;-65
2021/08/11 06:51:30;;;;;;;8.45;7.38;;;25.10;67.30;;;;;;5064805;28;20048;-63
2021/08/11 06:53:56;;;;;;;8.15;7.18;;;25.20;67.30;;;;;;5045851;28;20033;-63
2021/08/11 06:56:21;;;;;;;8.70;7.40;;;25.30;67.20;;;;;;5050467;28;20025;-62
2021/08/11 06:58:47;;;;;;;9.75;7.50;;;25.40;67.00;;;;;;5050810;28;20108;-64
2021/08/11 07:01:13;;;;;;;8.65;7.60;;;25.60;66.70;;;;;;5042543;28;20021;-62
2021/08/11 07:03:38;;;;;;;8.13;6.88;;;25.80;66.40;;;;;;5041273;28;20062;-63
2021/08/11 07:06:04;;;;;;;8.52;6.82;;;25.90;65.80;;;;;;5041810;28;20115;-63
2021/08/11 07:08:30;;;;;;;10.52;7.78;;;26.00;65.80;;;;;;5050215;28;20052;-64
2021/08/11 07:10:55;;;;;;;9.10;7.45;;;26.10;65.50;;;;;;5050337;28;20037;-62
2021/08/11 07:13:21;;;;;;;8.82;7.13;;;26.10;65.90;;;;;;5044582;28;20386;-62
2021/08/11 07:15:47;;;;;;;9.57;6.60;;;26.10;65.20;;;;;;5043688;28;20021;-63
2021/08/11 07:18:16;;;;;;;8.32;6.65;;;26.10;65.40;;;;;;5042112;28;20104;-63
2021/08/11 07:20:43;;;;;;;8.90;6.82;;;26.20;65.50;;;;;;5038608;28;20025;-63
2021/08/11 07:23:09;;;;;;;9.35;7.38;;;26.20;65.50;;;;;;5050472;28;20032;-64
2021/08/11 07:25:35;;;;;;;9.23;7.40;;;26.30;65.20;;;;;;5047349;28;20032;-63
2021/08/11 07:28:00;;;;;;;10.43;6.97;;;26.40;65.10;;;;;;5051227;28;20029;-62
2021/08/11 07:30:26;;;;;;;7.88;7.07;;;26.50;65.00;;;;;;5038747;28;20035;-63
2021/08/11 07:32:52;;;;;;;9.05;7.22;;;26.60;64.70;;;;;;5050374;28;20033;-63
2021/08/11 07:35:18;;;;;;;8.95;7.18;;;26.70;64.50;;;;;;5035132;28;20029;-63
2021/08/11 07:37:54;;;;;;;8.57;6.93;;;26.80;64.30;;;;;;5032200;28;20071;-63
2021/08/11 07:40:23;;;;;;;10.75;7.22;;;26.90;64.40;;;;;;5044230;28;20029;-63
2021/08/11 07:42:48;;;;;;;8.20;6.95;;;27.00;64.10;;;;;;5050310;28;20028;-65
2021/08/11 07:45:16;;;;;;;8.80;7.43;;;27.00;63.70;;;;;;5044973;28;20024;-63
2021/08/11 07:47:46;;;;;;;10.15;6.93;;;27.10;63.70;;;;;;5050531;28;20119;-64
2021/08/11 07:50:13;;;;;;;9.38;7.70;;;27.10;63.70;;;;;;5053167;28;20026;-63
2021/08/11 07:52:39;;;;;;;8.68;7.15;;;27.10;63.30;;;;;;5050350;28;20415;-63
2021/08/11 07:55:05;;;;;;;11.25;7.85;;;27.20;63.40;;;;;;5041679;28;20032;-63
2021/08/11 07:57:31;;;;;;;9.82;7.60;;;27.30;63.20;;;;;;5034797;28;20030;-64
2021/08/11 07:59:56;;;;;;;11.52;7.80;;;27.50;63.00;;;;;;5037693;28;20036;-63
2021/08/11 08:02:22;;;;;;;9.52;7.63;;;27.60;62.50;;;;;;5039606;28;20037;-62
2021/08/11 08:04:47;;;;;;;10.30;6.68;;;27.80;62.70;;;;;;5043052;28;20033;-63
2021/08/11 08:07:13;;;;;;;8.50;7.10;;;28.00;62.50;;;;;;5040840;28;20497;-63
2021/08/11 08:09:39;;;;;;;9.38;7.43;;;28.30;61.80;;;;;;5038026;28;20392;-65
2021/08/11 08:12:05;;;;;;;7.85;6.97;;;28.60;61.30;;;;;;5048459;28;20056;-65
2021/08/11 08:14:30;;;;;;;8.75;6.60;;;28.70;60.20;;;;;;5044025;28;20104;-65
2021/08/11 08:16:56;;;;;;;9.35;7.05;;;28.90;60.40;;;;;;5054668;28;20109;-66
2021/08/11 08:19:22;;;;;;;8.43;7.10;;;29.10;60.00;;;;;;5054405;28;20074;-66
2021/08/11 08:21:47;;;;;;;9.23;7.07;;;29.30;59.50;;;;;;5054124;28;20025;-62
2021/08/11 08:24:13;;;;;;;8.43;7.10;;;29.50;58.70;;;;;;5046780;28;20037;-63
2021/08/11 08:26:39;;;;;;;8.70;6.43;;;29.70;58.10;;;;;;5044231;28;20029;-67
2021/08/11 08:29:04;;;;;;;7.57;5.40;;;29.80;58.00;;;;;;5050451;28;20051;-70
2021/08/11 08:31:30;;;;;;;6.00;4.80;;;29.90;58.40;;;;;;5048662;28;20498;-72
2021/08/11 08:33:57;;;;;;;6.88;4.20;;;30.20;58.30;;;;;;5049629;28;20531;-71
2021/08/11 08:36:23;;;;;;;6.68;4.60;;;30.50;58.10;;;;;;5040669;28;20018;-68
2021/08/11 08:38:48;;;;;;;6.20;4.47;;;30.80;57.70;;;;;;5054339;28;20091;-70
2021/08/11 08:41:15;;;;;;;5.15;3.80;;;31.10;57.30;;;;;;5036017;28;20029;-73
2021/08/11 08:43:41;;;;;;;6.22;4.07;;;31.40;57.00;;;;;;5050971;28;20056;-72
2021/08/11 08:46:08;;;;;;;6.22;4.10;;;31.60;56.60;;;;;;5050466;28;20542;-71
2021/08/11 08:48:39;;;;;;;6.32;4.40;;;31.80;56.20;;;;;;5052090;28;20021;-71
2021/08/11 08:51:08;;;;;;;5.40;3.88;;;32.10;56.00;;;;;;5053961;28;20056;-68
2021/08/11 08:53:34;;;;;;;5.03;3.60;;;32.20;55.80;;;;;;5050197;28;20057;-69
2021/08/11 08:56:00;;;;;;;6.13;4.18;;;32.50;55.70;;;;;;5050113;28;20040;-69
2021/08/11 08:58:26;;;;;;;4.80;3.58;;;32.60;54.90;;;;;;5043954;28;20043;-69
2021/08/11 09:00:52;;;;;;;5.78;3.58;;;32.80;54.60;;;;;;5053755;28;20476;-70
2021/08/11 09:03:17;;;;;;;4.88;3.22;;;32.90;54.30;;;;;;5047421;28;20812;-67
2021/08/11 09:05:43;;;;;;;5.38;3.60;;;33.00;54.10;;;;;;5047094;28;20049;-72
2021/08/11 09:08:09;;;;;;;5.15;3.35;;;33.20;53.50;;;;;;5041302;28;20022;-75
2021/08/11 09:10:38;;;;;;;5.00;3.58;;;33.30;53.40;;;;;;5033870;28;20041;-72
2021/08/11 09:13:15;;;;;;;4.80;3.10;;;33.50;53.30;;;;;;5053393;28;20059;-73
2021/08/11 09:15:45;;;;;;;4.80;3.10;;;33.70;53.20;;;;;;5062047;28;20299;-72
2021/08/11 09:18:17;;;;;;;4.63;3.33;;;33.80;53.20;;;;;;5065502;28;20017;-72
2021/08/11 09:20:53;;;;;;;5.43;3.22;;;34.00;52.50;;;;;;5043063;28;20014;-71
2021/08/11 09:23:41;;;;;;;5.65;2.97;;;34.10;52.30;;;;;;5052700;28;20053;-69
2021/08/11 09:26:09;;;;;;;4.82;3.40;;;34.30;52.00;;;;;;5053140;28;20065;-70
2021/08/11 09:28:37;;;;;;;5.20;3.00;;;34.40;51.80;;;;;;5053539;28;20021;-71
2021/08/11 09:31:24;;;;;;;5.88;3.00;;;34.50;51.70;;;;;;5052525;28;20013;-71
2021/08/11 09:33:51;;;;;;;4.93;3.25;;;34.70;51.10;;;;;;5052507;28;20029;-72
2021/08/11 09:36:17;;;;;;;5.47;3.17;;;34.80;51.20;;;;;;5052925;28;20417;-71
2021/08/11 09:38:59;;;;;;;4.68;3.28;;;34.90;50.90;;;;;;5053238;28;20021;-70
2021/08/11 09:41:26;;;;;;;4.57;2.78;;;35.10;50.80;;;;;;5053211;28;20480;-70
2021/08/11 09:44:17;;;;;;;5.00;3.03;;;35.20;50.60;;;;;;5052833;28;20025;-71
2021/08/11 09:46:43;;;;;;;4.80;3.00;;;35.30;49.40;;;;;;5050522;28;20380;-70
2021/08/11 09:49:17;;;;;;;4.97;3.15;;;35.40;50.20;;;;;;5051901;28;20037;-71
2021/08/11 09:52:00;;;;;;;4.78;3.08;;;35.60;50.20;;;;;;5052386;28;20083;-72
2021/08/11 09:54:28;;;;;;;4.50;3.10;;;35.70;49.60;;;;;;5052850;28;20049;-71
2021/08/11 09:56:54;;;;;;;4.20;2.90;;;35.90;49.40;;;;;;5053064;28;20021;-70
2021/08/11 09:59:20;;;;;;;5.57;3.28;;;36.00;49.10;;;;;;5052876;28;20108;-69
2021/08/11 10:01:46;;;;;;;4.88;3.40;;;36.20;48.80;;;;;;5052792;28;20112;-70
2021/08/11 10:04:13;;;;;;;4.55;2.83;;;36.20;48.20;;;;;;5051643;28;20056;-71
2021/08/11 10:06:44;;;;;;;4.82;3.03;;;36.20;48.40;;;;;;5052727;28;20051;-71
2021/08/11 10:09:10;;;;;;;5.60;3.45;;;36.30;48.40;;;;;;5052719;28;20025;-70
2021/08/11 10:11:37;;;;;;;5.78;3.25;;;36.50;48.10;;;;;;5051865;28;20540;-72
2021/08/11 10:14:05;;;;;;;7.55;4.20;;;36.60;47.90;;;;;;5052012;28;20020;-64
2021/08/11 10:16:33;;;;;;;7.63;4.15;;;36.80;46.50;;;;;;5052040;28;20025;-62
2021/08/11 10:19:04;;;;;;;7.13;3.88;;;37.00;45.30;;;;;;5052346;28;20078;-61
2021/08/11 10:21:32;;;;;;;;;;;37.00;45.20;;;;;;5052482;28;20334;-63
2021/08/11 10:23:59;;;;;;;6.47;4.00;;;36.90;44.30;;;;;;5051914;28;20272;-65
2021/08/11 10:26:26;;;;;;;5.25;3.45;;;36.80;45.60;;;;;;5052175;28;20102;-65
2021/08/11 10:28:53;;;;;;;4.95;2.97;;;36.80;46.30;;;;;;5051653;28;20487;-66
2021/08/11 10:31:18;;;;;;;4.40;2.90;;;36.90;47.00;;;;;;5049963;28;20059;-65
2021/08/11 10:33:47;;;;;;;4.63;2.70;;;37.10;47.40;;;;;;5051479;28;20071;-65
2021/08/11 10:36:15;;;;;;;4.47;2.88;;;37.30;47.50;;;;;;5044673;28;20040;-66
2021/08/11 10:38:43;;;;;;;4.93;3.00;;;37.60;47.70;;;;;;5044367;28;20022;-65
2021/08/11 10:41:09;;;;;;;4.32;2.67;;;37.80;47.40;;;;;;5037071;28;20018;-65
2021/08/11 10:43:35;;;;;;;4.57;3.08;;;38.00;47.30;;;;;;5051683;28;20037;-64
2021/08/11 10:46:05;;;;;;;4.55;2.88;;;38.40;47.00;;;;;;5039466;28;20025;-65
2021/08/11 10:48:31;;;;;;;5.30;3.03;;;38.70;47.00;;;;;;5036063;28;20372;-64
2021/08/11 10:50:57;;;;;;;5.65;3.30;;;38.90;46.60;;;;;;5044992;28;20043;-65
2021/08/11 10:53:24;;;;;;;4.75;3.05;;;39.20;46.00;;;;;;5045116;28;20037;-66
2021/08/11 10:55:52;;;;;;;4.55;2.80;;;39.50;46.00;;;;;;5047693;28;20013;-66
2021/08/11 10:58:38;;;;;;;5.28;2.70;;;39.80;45.90;;;;;;5055032;28;20021;-66
2021/08/11 11:01:39;;;;;;;6.90;2.70;;;40.10;45.00;;;;;;5051629;28;20100;-72
2021/08/11 11:04:05;;;;;;;4.63;2.50;;;40.20;44.50;;;;;;5012760;28;20033;-65
2021/08/11 11:06:51;;;;;;;4.13;2.38;;;40.30;44.70;;;;;;5046449;28;20098;-66
2021/08/11 11:09:22;;;;;;;4.10;2.55;;;40.50;43.40;;;;;;5051507;28;20024;-65
2021/08/11 11:11:47;;;;;;;;;;;40.70;44.20;;;;;;5051924;28;20116;-67
2021/08/11 11:14:53;;;;;;;3.60;2.20;;;40.90;44.00;;;;;;5051719;28;20012;-66
2021/08/11 11:17:21;;;;;;;3.65;2.10;;;41.20;42.60;;;;;;5029225;28;20025;-66
2021/08/11 11:22:36;;;;;;;4.90;2.60;;;42.00;43.10;;;;;;5051161;28;20029;-66
2021/08/11 11:25:10;;;;;;;5.00;2.50;;;42.30;42.10;;;;;;5051525;28;20098;-67
2021/08/11 11:27:41;;;;;;;3.70;2.30;;;42.50;42.00;;;;;;5051824;28;20057;-67
2021/08/11 11:30:10;;;;;;;5.22;2.67;;;42.80;41.90;;;;;;5051306;28;20036;-66
2021/08/11 11:32:37;;;;;;;3.65;2.20;;;43.10;41.10;;;;;;5050880;28;20029;-67
2021/08/11 11:35:23;;;;;;;3.67;2.20;;;43.20;40.80;;;;;;5051425;28;20070;-67
2021/08/11 11:38:10;;;;;;;4.10;2.30;;;43.40;38.80;;;;;;5051449;28;20017;-67
2021/08/11 11:41:02;;;;;;;3.90;2.30;;;43.50;39.90;;;;;;5051292;28;20033;-67
2021/08/11 11:43:32;;;;;;;4.63;2.55;;;43.80;39.70;;;;;;5046261;28;20071;-66
2021/08/11 11:45:59;;;;;;;4.32;2.60;;;44.00;39.60;;;;;;5040861;28;20040;-66
2021/08/11 11:48:25;;;;;;;3.90;2.30;;;44.20;39.00;;;;;;5053967;28;20063;-67
2021/08/11 11:51:00;;;;;;;5.32;3.00;;;44.30;39.10;;;;;;5038881;28;20037;-66
2021/08/11 11:53:36;;;;;;;6.20;2.90;;;44.60;38.70;;;;;;5035697;28;20034;-66
2021/08/11 11:56:13;;;;;;;4.15;2.45;;;44.70;38.00;;;;;;5037713;28;20033;-66
2021/08/11 11:58:45;;;;;;;3.83;2.15;;;44.80;37.70;;;;;;5055206;28;20443;-67
2021/08/11 12:01:12;;;;;;;3.15;1.80;;;44.90;37.50;;;;;;5055032;28;20017;-67
2021/08/11 12:03:41;;;;;;;3.20;1.77;;;45.10;37.50;;;;;;5053582;28;20031;-67
2021/08/11 12:06:08;;;;;;;2.75;1.60;;;45.40;37.20;;;;;;5054586;28;20106;-67
2021/08/11 12:08:34;;;;;;;2.75;1.60;;;45.60;37.00;;;;;;5054799;28;20028;-67
2021/08/11 12:11:07;;;;;;;3.55;1.55;;;45.80;37.00;;;;;;5054188;28;20361;-67
2021/08/11 12:13:47;;;;;;;3.58;1.77;;;46.10;36.80;;;;;;5053693;28;20039;-66
2021/08/11 12:16:14;;;;;;;2.55;1.70;;;46.40;36.10;;;;;;5056822;28;20025;-66
2021/08/11 12:18:42;;;;;;;2.50;1.52;;;46.50;36.20;;;;;;5053635;28;20086;-67
2021/08/11 12:21:09;;;;;;;3.30;1.80;;;46.60;36.00;;;;;;5052794;28;20040;-67
2021/08/11 12:23:35;;;;;;;2.05;1.33;;;46.60;35.50;;;;;;5053303;28;20476;-66
2021/08/11 12:26:06;;;;;;;2.88;1.60;;;46.80;35.80;;;;;;5051796;28;20033;-67
2021/08/11 12:28:37;;;;;;;2.65;1.40;;;47.00;35.40;;;;;;5048713;28;20044;-67
2021/08/11 12:31:06;;;;;;;2.35;1.48;;;47.20;35.20;;;;;;5053796;28;20033;-66
2021/08/11 12:33:36;;;;;;;3.03;1.60;;;47.40;34.90;;;;;;5053978;28;20119;-67
2021/08/11 12:36:23;;;;;;;2.47;1.50;;;47.50;34.70;;;;;;5053749;28;20115;-66
2021/08/11 12:39:11;;;;;;;2.67;1.50;;;47.60;34.60;;;;;;5053698;28;20056;-67
2021/08/11 12:41:45;;;;;;;2.30;1.40;;;47.70;33.50;;;;;;5052790;28;20025;-67
2021/08/11 12:44:17;;;;;;;4.47;2.00;;;47.70;34.00;;;;;;5054034;28;20040;-64
2021/08/11 12:46:43;;;;;;;3.72;1.80;;;47.80;32.90;;;;;;5053878;28;20021;-66
2021/08/11 12:49:16;;;;;;;3.75;1.95;;;47.60;32.40;;;;;;5053947;28;20388;-64
2021/08/11 12:51:42;;;;;;;4.80;2.10;;;47.50;31.00;;;;;;5054212;28;20021;-64
2021/08/11 12:54:08;;;;;;;3.15;1.80;;;47.30;31.80;;;;;;5053998;28;20021;-64
2021/08/11 12:56:53;;;;;;;3.92;1.85;;;47.20;31.70;;;;;;5053829;28;20051;-66
2021/08/11 12:59:18;;;;;;;3.53;1.67;;;47.10;31.20;;;;;;5052922;28;20023;-65